createdAt,value
2019-04-06T00:00:07.663Z,65.50
2019-04-06T00:02:38.306Z,67.43
2019-04-06T00:05:07.042Z,64.50
2019-04-06T00:07:33.912Z,69.83
2019-04-06T00:10:00.794Z,70.50
2019-04-06T00:12:27.694Z,68.43
2019-04-06T00:14:54.622Z,66.60
2019-04-06T00:17:23.980Z,68.20
2019-04-06T00:19:51.842Z,68.87
2019-04-06T00:22:18.718Z,66.17
2019-04-06T00:24:45.610Z,70.57
2019-04-06T00:27:13.373Z,66.87
2019-04-06T00:29:41.375Z,69.70
2019-04-06T00:32:10.155Z,66.60
2019-04-06T00:34:36.982Z,70.23
2019-04-06T00:37:03.978Z,68.47
2019-04-06T00:39:31.214Z,68.57
2019-04-06T00:41:58.367Z,71.20
2019-04-06T00:44:25.132Z,67.03
2019-04-06T00:46:51.970Z,66.93
2019-04-06T00:49:18.906Z,72.90
2019-04-06T00:51:45.814Z,70.60
2019-04-06T00:54:12.836Z,68.53
2019-04-06T00:56:39.790Z,71.20
2019-04-06T00:59:06.728Z,68.17
2019-04-06T01:01:33.710Z,70.43
2019-04-06T01:04:00.393Z,70.30
2019-04-06T01:06:27.340Z,70.60
2019-04-06T01:08:54.320Z,71.03
2019-04-06T01:11:22.945Z,70.50
2019-04-06T01:13:49.974Z,71.63
2019-04-06T01:16:16.908Z,74.83
2019-04-06T01:18:43.640Z,73.23
2019-04-06T01:21:10.539Z,70.67
2019-04-06T01:23:37.643Z,75.17
2019-04-06T01:26:07.910Z,69.57
2019-04-06T01:28:34.781Z,71.13
2019-04-06T01:31:02.927Z,71.97
2019-04-06T01:33:29.811Z,72.20
2019-04-06T01:35:56.729Z,73.30
2019-04-06T01:38:46.080Z,71.53
2019-04-06T01:41:15.682Z,68.57
2019-04-06T01:43:58.467Z,72.07
2019-04-06T01:46:35.396Z,70.97
2019-04-06T01:49:24.528Z,72.27
2019-04-06T01:51:57.245Z,72.97
2019-04-06T01:57:35.081Z,70.93
2019-04-06T02:00:32.540Z,73.00
2019-04-06T02:06:00.887Z,70.13
2019-04-06T02:08:34.157Z,75.07
2019-04-06T02:14:03.819Z,71.80
2019-04-06T02:16:55.329Z,72.23
2019-04-06T02:25:44.432Z,72.27
2019-04-06T02:28:11.252Z,68.37
2019-04-06T02:30:54.974Z,70.73
2019-04-06T02:33:31.400Z,73.50
2019-04-06T02:36:02.812Z,70.83
2019-04-06T02:38:40.263Z,72.20
2019-04-06T02:41:12.063Z,71.10
2019-04-06T02:43:40.017Z,73.23
2019-04-06T02:46:06.783Z,75.53
2019-04-06T02:48:34.149Z,70.63
2019-04-06T02:51:00.993Z,71.30
2019-04-06T02:53:27.852Z,71.40
2019-04-06T02:55:54.783Z,69.27
2019-04-06T02:58:23.203Z,71.80
2019-04-06T03:00:50.462Z,73.23
2019-04-06T03:03:17.498Z,71.03
2019-04-06T03:05:44.499Z,72.40
2019-04-06T03:08:11.513Z,71.50
2019-04-06T03:10:38.456Z,76.07
2019-04-06T03:13:05.311Z,71.43
2019-04-06T03:15:32.218Z,74.40
2019-04-06T03:17:59.421Z,70.73
2019-04-06T03:20:27.506Z,76.40
2019-04-06T03:22:54.409Z,73.67
2019-04-06T03:25:21.817Z,71.53
2019-04-06T03:27:48.713Z,72.90
2019-04-06T03:30:16.655Z,72.83
2019-04-06T03:32:43.520Z,67.77
2019-04-06T03:35:11.488Z,71.87
2019-04-06T03:37:38.503Z,76.63
2019-04-06T03:40:05.984Z,73.20
2019-04-06T03:42:33.087Z,75.57
2019-04-06T03:44:59.998Z,73.53
2019-04-06T03:47:26.874Z,73.67
2019-04-06T03:49:53.788Z,75.40
2019-04-06T03:52:20.932Z,70.60
2019-04-06T03:54:48.617Z,75.30
2019-04-06T03:57:16.942Z,71.40
2019-04-06T03:59:44.034Z,72.10
2019-04-06T04:02:10.781Z,77.60
2019-04-06T04:04:38.500Z,69.67
2019-04-06T04:07:05.247Z,77.23
2019-04-06T04:09:32.023Z,72.13
2019-04-06T04:11:58.761Z,70.10
2019-04-06T04:14:25.609Z,74.23
2019-04-06T04:17:01.287Z,71.57
2019-04-06T04:19:30.238Z,72.00
2019-04-06T04:21:57.106Z,71.13
2019-04-06T04:24:26.501Z,72.43
2019-04-06T04:26:53.244Z,72.80
2019-04-06T04:29:20.134Z,70.33
2019-04-06T04:31:46.898Z,72.80
2019-04-06T04:34:13.652Z,71.43
2019-04-06T04:36:40.441Z,75.40
2019-04-06T04:39:07.643Z,70.30
2019-04-06T04:41:34.500Z,74.30
2019-04-06T04:44:01.238Z,73.10
2019-04-06T04:46:28.158Z,75.03
2019-04-06T04:48:55.035Z,71.40
2019-04-06T04:51:21.754Z,71.77
2019-04-06T04:53:50.714Z,72.63
2019-04-06T04:56:18.710Z,74.43
2019-04-06T04:58:45.450Z,76.87
2019-04-06T05:01:12.131Z,73.83
2019-04-06T05:03:40.792Z,72.00
2019-04-06T05:06:07.602Z,77.60
2019-04-06T05:08:34.483Z,75.70
2019-04-06T05:11:01.222Z,77.50
2019-04-06T05:13:28.451Z,72.73
2019-04-06T05:16:07.958Z,73.27
2019-04-06T05:18:34.614Z,73.50
2019-04-06T05:21:01.432Z,72.53
2019-04-06T05:23:28.221Z,75.73
2019-04-06T05:25:54.884Z,73.93
2019-04-06T05:28:21.616Z,73.60
2019-04-06T05:30:48.487Z,73.87
2019-04-06T05:33:17.998Z,70.10
2019-04-06T05:35:44.699Z,72.13
2019-04-06T05:38:11.548Z,73.60
2019-04-06T05:40:38.541Z,72.57
2019-04-06T05:43:05.337Z,67.50
2019-04-06T05:45:32.638Z,73.30
2019-04-06T05:48:00.720Z,66.10
2019-04-06T05:50:27.464Z,73.00
2019-04-06T05:52:54.316Z,70.63
2019-04-06T05:55:24.393Z,66.87
2019-04-06T05:58:02.374Z,65.93
2019-04-06T06:00:19.731Z,68.70
2019-04-06T06:02:46.499Z,70.07
2019-04-06T06:05:13.291Z,67.00
2019-04-06T06:07:40.123Z,67.07
2019-04-06T06:10:07.161Z,66.37
2019-04-06T06:12:34.625Z,68.13
2019-04-06T06:15:01.881Z,70.23
2019-04-06T06:17:28.862Z,68.50
2019-04-06T06:19:55.733Z,64.20
2019-04-06T06:22:31.454Z,64.93
2019-04-06T06:25:00.080Z,64.67
2019-04-06T06:27:27.540Z,67.50
2019-04-06T06:29:54.550Z,65.13
2019-04-06T06:32:22.429Z,64.27
2019-04-06T06:34:49.963Z,66.70
2019-04-06T06:37:16.680Z,68.77
2019-04-06T06:39:43.400Z,63.07
2019-04-06T06:42:10.184Z,63.50
2019-04-06T06:44:37.776Z,59.83
2019-04-06T06:47:04.659Z,61.27
2019-04-06T06:49:31.504Z,64.47
2019-04-06T06:51:58.205Z,63.60
2019-04-06T06:54:26.060Z,65.73
2019-04-06T06:56:52.886Z,65.27
2019-04-06T06:59:20.181Z,64.53
2019-04-06T07:01:46.940Z,62.90
2019-04-06T07:04:13.734Z,63.07
2019-04-06T07:06:41.724Z,62.47
2019-04-06T07:09:08.598Z,60.53
2019-04-06T07:11:35.474Z,66.70
2019-04-06T07:14:04.268Z,58.40
2019-04-06T07:16:31.109Z,64.90
2019-04-06T07:18:58.441Z,62.20
2019-04-06T07:21:25.194Z,60.23
2019-04-06T07:23:51.948Z,63.30
2019-04-06T07:26:18.612Z,62.50
2019-04-06T07:28:45.495Z,65.07
2019-04-06T07:31:12.368Z,67.37
2019-04-06T07:33:40.659Z,59.47
2019-04-06T07:36:07.638Z,57.73
2019-04-06T07:38:34.512Z,61.90
2019-04-06T07:41:01.174Z,63.93
2019-04-06T07:43:35.184Z,60.40
2019-04-06T07:46:32.850Z,59.60
2019-04-06T07:49:08.310Z,54.27
2019-04-06T07:51:41.125Z,53.70
2019-04-06T07:54:08.345Z,58.23
2019-04-06T07:56:37.078Z,52.53
2019-04-06T07:59:14.298Z,56.53
2019-04-06T08:01:41.244Z,53.43
2019-04-06T08:04:16.466Z,55.23
2019-04-06T08:06:49.222Z,55.87
2019-04-06T08:12:05.914Z,51.63
2019-04-06T08:14:35.784Z,53.57
2019-04-06T08:17:10.935Z,51.37
2019-04-06T08:22:38.608Z,48.60
2019-04-06T08:25:06.204Z,50.63
2019-04-06T08:27:33.368Z,58.57
2019-04-06T08:30:03.535Z,48.07
2019-04-06T08:32:34.236Z,48.03
2019-04-06T08:38:02.907Z,51.00
2019-04-06T08:40:32.442Z,49.73
2019-04-06T08:43:03.860Z,51.80
2019-04-06T08:45:38.756Z,53.30
2019-04-06T08:48:05.646Z,51.13
2019-04-06T08:50:32.338Z,50.67
2019-04-06T08:53:01.370Z,51.53
2019-04-06T08:55:28.530Z,52.93
2019-04-06T09:06:54.494Z,50.37
2019-04-06T09:15:22.668Z,45.10
2019-04-06T09:17:50.663Z,45.47
2019-04-06T09:20:17.664Z,46.67
2019-04-06T09:22:44.506Z,45.10
2019-04-06T09:25:11.682Z,43.13
2019-04-06T09:27:38.673Z,42.87
2019-04-06T09:30:06.216Z,46.27
2019-04-06T09:32:35.076Z,43.60
2019-04-06T09:37:56.349Z,38.80
2019-04-06T09:43:30.868Z,41.60
2019-04-06T09:46:17.598Z,38.33
2019-04-06T09:49:22.927Z,35.87
2019-04-06T09:52:09.488Z,40.23
2019-04-06T09:54:51.236Z,41.20
2019-04-06T09:57:30.689Z,41.43
2019-04-06T10:00:23.122Z,39.47
2019-04-06T10:06:12.488Z,41.57
2019-04-06T10:14:46.407Z,39.27
2019-04-06T10:17:19.647Z,34.00
2019-04-06T10:20:07.370Z,33.03
2019-04-06T10:23:05.943Z,33.30
2019-04-06T10:26:03.789Z,33.90
2019-04-06T10:31:43.093Z,34.43
2019-04-06T10:34:14.510Z,34.43
2019-04-06T10:37:06.434Z,35.23
2019-04-06T10:39:42.777Z,30.03
2019-04-06T10:42:18.511Z,33.83
2019-04-06T10:44:59.549Z,28.87
2019-04-06T10:47:43.265Z,31.97
2019-04-06T10:50:35.751Z,30.37
2019-04-06T10:53:09.876Z,30.63
2019-04-06T10:55:48.230Z,27.90
2019-04-06T10:58:16.825Z,28.00
2019-04-06T11:00:45.580Z,28.20
2019-04-06T11:03:26.521Z,26.87
2019-04-06T11:05:57.743Z,25.83
2019-04-06T11:08:29.317Z,23.23
2019-04-06T11:11:06.768Z,23.93
2019-04-06T11:13:36.359Z,23.27
2019-04-06T11:16:14.626Z,23.00
2019-04-06T11:18:55.100Z,20.37
2019-04-06T11:21:24.188Z,21.37
2019-04-06T11:23:52.909Z,23.70
2019-04-06T11:26:27.718Z,22.80
2019-04-06T11:29:14.699Z,19.40
2019-04-06T11:31:45.979Z,21.70
2019-04-06T11:34:17.247Z,21.10
2019-04-06T11:37:02.449Z,22.70
2019-04-06T11:39:36.981Z,23.03
2019-04-06T11:42:08.638Z,23.20
2019-04-06T11:44:43.158Z,21.47
2019-04-06T11:47:11.789Z,21.57
2019-04-06T11:49:46.336Z,19.47
2019-04-06T11:52:27.215Z,17.60
2019-04-06T11:54:55.729Z,14.43
2019-04-06T11:57:41.164Z,16.33
2019-04-06T12:00:24.652Z,16.87
2019-04-06T12:02:48.787Z,16.83
2019-04-06T12:05:20.671Z,17.13
2019-04-06T12:07:49.264Z,16.67
2019-04-06T12:10:23.809Z,15.37
2019-04-06T12:13:02.877Z,16.13
2019-04-06T12:15:37.423Z,15.57
2019-04-06T12:18:22.866Z,14.83
2019-04-06T12:20:54.781Z,15.50
2019-04-06T12:23:41.157Z,17.23
2019-04-06T12:26:09.665Z,17.53
2019-04-06T12:28:41.200Z,17.20
2019-04-06T12:31:22.342Z,16.57
2019-04-06T12:34:07.807Z,19.13
2019-04-06T12:36:42.567Z,17.67
2019-04-06T12:39:17.275Z,18.17
2019-04-06T12:41:46.161Z,17.77
2019-04-06T12:44:34.635Z,22.10
2019-04-06T12:47:06.630Z,18.10
2019-04-06T12:49:41.147Z,17.83
2019-04-06T12:52:19.037Z,18.33
2019-04-06T12:54:56.819Z,15.77
2019-04-06T12:57:25.422Z,17.67
2019-04-06T12:59:59.900Z,17.73
2019-04-06T13:02:28.519Z,17.27
2019-04-06T13:04:59.920Z,17.33
2019-04-06T13:07:40.288Z,18.17
2019-04-06T13:10:11.888Z,17.83
2019-04-06T13:12:40.521Z,17.77
2019-04-06T13:15:09.659Z,16.80
2019-04-06T13:17:41.294Z,16.13
2019-04-06T13:20:12.731Z,16.47
2019-04-06T13:22:41.437Z,16.67
2019-04-06T13:25:22.108Z,18.00
2019-04-06T13:27:59.754Z,19.57
2019-04-06T13:30:28.740Z,17.80
2019-04-06T13:32:58.129Z,18.97
2019-04-06T13:35:44.204Z,18.03
2019-04-06T13:38:14.690Z,19.13
2019-04-06T13:41:00.514Z,19.47
2019-04-06T13:43:29.046Z,18.23
2019-04-06T13:46:16.048Z,18.60
2019-04-06T13:48:47.314Z,18.50
2019-04-06T13:51:33.984Z,17.47
2019-04-06T13:54:18.301Z,18.77
2019-04-06T13:56:56.130Z,18.73
2019-04-06T13:59:36.800Z,19.33
2019-04-06T14:02:22.205Z,18.87
2019-04-06T14:04:59.700Z,20.10
2019-04-06T14:07:28.368Z,19.57
2019-04-06T14:09:56.991Z,18.93
2019-04-06T14:12:42.229Z,20.87
2019-04-06T14:15:13.559Z,19.17
2019-04-06T14:17:42.331Z,19.80
2019-04-06T14:20:13.043Z,21.33
2019-04-06T14:22:58.196Z,21.37
2019-04-06T14:25:39.214Z,21.67
2019-04-06T14:28:24.740Z,22.40
2019-04-06T14:31:05.505Z,21.80
2019-04-06T14:33:44.170Z,20.80
2019-04-06T14:36:16.135Z,19.50
2019-04-06T14:38:44.974Z,21.60
2019-04-06T14:41:16.340Z,20.73
2019-04-06T14:43:50.059Z,21.83
2019-04-06T14:46:18.626Z,22.27
2019-04-06T14:48:47.183Z,21.10
2019-04-06T14:51:15.802Z,21.63
2019-04-06T14:53:47.467Z,22.70
2019-04-06T14:56:33.467Z,22.27
2019-04-06T14:59:01.982Z,23.27
2019-04-06T15:01:45.642Z,21.60
2019-04-06T15:04:07.102Z,21.40
2019-04-06T15:06:53.648Z,22.90
2019-04-06T15:09:27.957Z,21.97
2019-04-06T15:12:13.026Z,21.67
2019-04-06T15:14:58.384Z,22.07
2019-04-06T15:17:32.771Z,21.57
2019-04-06T15:20:04.404Z,25.83
2019-04-06T15:22:36.710Z,29.23
2019-04-06T15:25:13.447Z,22.80
2019-04-06T15:27:48.292Z,24.77
2019-04-06T15:30:29.108Z,24.23
2019-04-06T15:33:01.039Z,23.87
2019-04-06T15:35:34.569Z,23.20
2019-04-06T15:38:15.225Z,23.73
2019-04-06T15:41:00.653Z,22.53
2019-04-06T15:43:45.716Z,24.17
2019-04-06T15:46:31.079Z,24.07
2019-04-06T15:49:05.850Z,24.10
2019-04-06T15:51:46.850Z,24.90
2019-04-06T15:54:32.058Z,24.63
2019-04-06T15:57:03.818Z,25.23
2019-04-06T15:59:32.448Z,27.10
2019-04-06T16:02:02.960Z,22.77
2019-04-06T16:04:46.936Z,26.73
2019-04-06T16:07:33.379Z,23.70
2019-04-06T16:10:19.645Z,24.23
2019-04-06T16:12:48.286Z,25.13
2019-04-06T16:15:33.456Z,27.20
2019-04-06T16:18:06.059Z,27.30
2019-04-06T16:20:41.024Z,26.70
2019-04-06T16:23:10.214Z,25.20
2019-04-06T16:25:45.029Z,24.40
2019-04-06T16:28:16.689Z,23.67
2019-04-06T16:30:50.466Z,24.23
2019-04-06T16:33:35.506Z,26.13
2019-04-06T16:36:20.967Z,24.00
2019-04-06T16:38:58.580Z,24.80
2019-04-06T16:41:33.095Z,25.33
2019-04-06T16:44:01.601Z,24.87
2019-04-06T16:46:30.346Z,23.37
2019-04-06T16:49:05.422Z,25.43
2019-04-06T16:51:36.756Z,25.13
2019-04-06T16:54:17.708Z,27.53
2019-04-06T16:57:04.313Z,25.70
2019-04-06T16:59:39.122Z,24.20
2019-04-06T17:02:24.516Z,25.07
2019-04-06T17:05:08.527Z,24.27
2019-04-06T17:07:39.718Z,25.23
2019-04-06T17:10:08.840Z,22.97
2019-04-06T17:12:37.697Z,26.03
2019-04-06T17:15:09.810Z,24.23
2019-04-06T17:17:38.366Z,26.20
2019-04-06T17:20:16.998Z,25.93
2019-04-06T17:23:04.295Z,26.07
2019-04-06T17:25:39.228Z,25.10
2019-04-06T17:28:10.871Z,25.77
2019-04-06T17:30:56.773Z,25.07
2019-04-06T17:33:40.458Z,25.47
2019-04-06T17:36:09.031Z,27.33
2019-04-06T17:38:55.564Z,27.17
2019-04-06T17:41:28.338Z,25.47
2019-04-06T17:43:58.082Z,26.53
2019-04-06T17:46:36.239Z,27.53
2019-04-06T17:49:24.024Z,24.20
2019-04-06T17:52:03.070Z,25.90
2019-04-06T17:54:34.940Z,27.27
2019-04-06T17:57:18.727Z,27.73
2019-04-06T17:59:54.075Z,25.93
2019-04-06T18:02:23.103Z,25.17
2019-04-06T18:05:10.297Z,25.97
2019-04-06T18:07:48.347Z,24.07
2019-04-06T18:10:17.328Z,22.40
2019-04-06T18:12:46.156Z,24.70
2019-04-06T18:15:13.045Z,27.43
2019-04-06T18:17:39.817Z,25.77
2019-04-06T18:20:07.551Z,23.97
2019-04-06T18:22:34.330Z,28.57
2019-04-06T18:25:04.159Z,26.40
2019-04-06T18:27:30.735Z,25.17
2019-04-06T18:29:57.470Z,26.90
2019-04-06T18:32:35.127Z,28.33
2019-04-06T18:35:01.944Z,27.47
2019-04-06T18:37:44.127Z,26.50
2019-04-06T18:40:13.814Z,30.00
2019-04-06T18:42:40.623Z,26.87
2019-04-06T18:45:07.556Z,29.93
2019-04-06T18:47:34.476Z,27.00
2019-04-06T18:50:01.791Z,28.40
2019-04-06T18:52:28.809Z,26.83
2019-04-06T18:54:56.068Z,27.27
2019-04-06T18:57:24.720Z,27.77
2019-04-06T18:59:51.533Z,31.63
2019-04-06T19:02:18.413Z,33.50
2019-04-06T19:04:45.147Z,31.43
2019-04-06T19:07:11.952Z,27.60
2019-04-06T19:09:39.595Z,33.40
2019-04-06T19:12:06.508Z,30.93
2019-04-06T19:14:33.375Z,31.73
2019-04-06T19:17:00.847Z,30.97
2019-04-06T19:19:28.439Z,30.73
2019-04-06T19:21:55.630Z,32.97
2019-04-06T19:24:22.558Z,31.23
2019-04-06T19:26:49.274Z,33.90
2019-04-06T19:29:16.064Z,31.67
2019-04-06T19:31:43.238Z,33.90
2019-04-06T19:34:10.281Z,33.40
2019-04-06T19:36:37.854Z,33.73
2019-04-06T19:39:08.675Z,36.27
2019-04-06T19:41:35.509Z,34.00
2019-04-06T19:44:02.590Z,43.93
2019-04-06T19:46:30.647Z,32.77
2019-04-06T19:48:57.396Z,32.40
2019-04-06T19:51:24.123Z,32.27
2019-04-06T19:53:51.160Z,31.77
2019-04-06T19:56:17.942Z,34.67
2019-04-06T19:58:44.827Z,30.47
2019-04-06T20:01:11.805Z,53.27
2019-04-06T20:03:39.376Z,79.23
2019-04-06T20:06:06.773Z,35.03
2019-04-06T20:08:33.397Z,37.13
2019-04-06T20:11:00.238Z,38.43
2019-04-06T20:13:28.765Z,37.60
2019-04-06T20:15:57.116Z,39.90
2019-04-06T20:18:23.870Z,41.07
2019-04-06T20:20:50.639Z,41.23
2019-04-06T20:23:18.765Z,38.33
2019-04-06T20:25:45.488Z,37.93
2019-04-06T20:28:12.332Z,42.67
2019-04-06T20:30:39.731Z,37.77
2019-04-06T20:33:07.083Z,39.10
2019-04-06T20:35:34.095Z,39.17
2019-04-06T20:38:00.806Z,42.17
2019-04-06T20:40:27.569Z,40.13
2019-04-06T20:42:54.549Z,47.57
2019-04-06T20:45:21.509Z,37.70
2019-04-06T20:47:48.526Z,38.93
2019-04-06T20:50:15.567Z,38.93
2019-04-06T20:52:42.510Z,43.33
2019-04-06T20:55:10.110Z,41.80
2019-04-06T20:57:37.308Z,42.50
2019-04-06T21:00:07.181Z,41.80
2019-04-06T21:02:36.257Z,42.97
2019-04-06T21:05:07.954Z,49.20
2019-04-06T21:07:34.819Z,43.37
2019-04-06T21:10:02.179Z,41.37
2019-04-06T21:12:30.249Z,45.23
2019-04-06T21:14:57.149Z,48.87
2019-04-06T21:17:23.771Z,46.80
2019-04-06T21:19:50.657Z,46.47
2019-04-06T21:22:17.483Z,45.77
2019-04-06T21:24:44.931Z,47.07
2019-04-06T21:27:13.975Z,50.30
2019-04-06T21:29:40.883Z,47.37
2019-04-06T21:32:07.651Z,46.63
2019-04-06T21:34:34.868Z,50.03
2019-04-06T21:37:01.978Z,45.77
2019-04-06T21:39:30.642Z,49.60
2019-04-06T21:41:59.693Z,51.73
2019-04-06T21:44:26.725Z,49.97
2019-04-06T21:46:53.797Z,53.60
2019-04-06T21:49:21.132Z,49.00
2019-04-06T21:51:48.731Z,54.50
2019-04-06T21:54:16.001Z,54.13
2019-04-06T21:56:43.413Z,52.87
2019-04-06T21:59:10.119Z,69.47
2019-04-06T22:01:37.199Z,68.90
2019-04-06T22:04:04.367Z,68.30
2019-04-06T22:06:31.655Z,70.73
2019-04-06T22:08:58.437Z,69.43
2019-04-06T22:11:25.116Z,70.03
2019-04-06T22:13:52.193Z,74.03
2019-04-06T22:16:20.151Z,73.93
2019-04-06T22:18:47.009Z,69.93
2019-04-06T22:21:13.907Z,67.70
2019-04-06T22:23:43.879Z,65.07
2019-04-06T22:26:09.357Z,64.47
2019-04-06T22:28:36.688Z,65.50
2019-04-06T22:31:03.603Z,67.67
2019-04-06T22:33:30.572Z,69.00
2019-04-06T22:35:57.468Z,67.63
2019-04-06T22:38:24.143Z,69.37
2019-04-06T22:40:50.868Z,74.73
2019-04-06T22:43:17.519Z,74.83
2019-04-06T22:45:45.298Z,74.77
2019-04-06T22:48:12.167Z,79.03
2019-04-06T22:50:39.277Z,78.10
2019-04-06T22:53:06.537Z,85.37
2019-04-06T22:55:33.581Z,84.97
2019-04-06T22:58:00.321Z,86.47
2019-04-06T23:00:29.399Z,87.63
2019-04-06T23:03:15.037Z,90.00
2019-04-06T23:05:47.018Z,86.93
2019-04-06T23:08:14.563Z,93.27
2019-04-06T23:10:42.143Z,90.93
2019-04-06T23:13:09.037Z,96.03
2019-04-06T23:15:36.068Z,97.10
2019-04-06T23:18:03.562Z,94.43
2019-04-06T23:20:32.269Z,92.97
2019-04-06T23:22:59.456Z,94.60
2019-04-06T23:25:26.804Z,97.37
2019-04-06T23:27:53.695Z,91.00
2019-04-06T23:30:20.415Z,87.90
2019-04-06T23:32:47.760Z,88.57
2019-04-06T23:35:15.201Z,81.87
2019-04-06T23:37:42.051Z,81.03
2019-04-06T23:40:09.137Z,79.60
2019-04-06T23:42:37.638Z,77.53
2019-04-06T23:45:05.984Z,81.00
2019-04-06T23:47:32.799Z,74.60
2019-04-06T23:49:59.714Z,77.07
2019-04-06T23:52:27.456Z,72.83
2019-04-06T23:54:54.682Z,71.97
2019-04-06T23:57:22.457Z,73.37
2019-04-06T23:59:49.074Z,70.73
